createdAt,value
2018-10-01T00:01:22.570Z,62.65
2018-10-01T00:03:53.340Z,62.09
2018-10-01T00:06:23.508Z,62.19
2018-10-01T00:08:52.507Z,62.67
2018-10-01T00:11:22.056Z,62.00
2018-10-01T00:13:51.407Z,61.08
2018-10-01T00:16:21.672Z,61.79
2018-10-01T00:18:53.943Z,61.65
2018-10-01T00:21:28.591Z,61.60
2018-10-01T00:23:57.684Z,63.35
2018-10-01T00:26:27.378Z,62.31
2018-10-01T00:28:57.784Z,62.41
2018-10-01T00:31:27.288Z,62.59
2018-10-01T00:33:58.096Z,63.35
2018-10-01T00:36:27.403Z,63.15
2018-10-01T00:38:56.720Z,63.34
2018-10-01T00:41:26.127Z,60.92
2018-10-01T00:43:54.908Z,61.41
2018-10-01T00:46:25.174Z,62.10
2018-10-01T00:48:54.760Z,62.36
2018-10-01T00:51:23.903Z,62.95
2018-10-01T00:53:56.115Z,64.87
2018-10-01T00:56:26.424Z,64.91
2018-10-01T00:58:55.179Z,64.57
2018-10-01T01:01:25.309Z,64.37
2018-10-01T01:03:55.286Z,64.97
2018-10-01T01:06:25.715Z,63.85
2018-10-01T01:08:55.812Z,61.71
2018-10-01T01:11:27.297Z,61.25
2018-10-01T01:13:56.881Z,60.63
2018-10-01T01:16:25.533Z,59.61
2018-10-01T01:18:57.452Z,60.55
2018-10-01T01:21:28.466Z,60.91
2018-10-01T01:23:58.155Z,59.64
2018-10-01T01:26:29.379Z,59.58
2018-10-01T01:28:59.855Z,60.01
2018-10-01T01:31:30.931Z,60.09
2018-10-01T01:34:00.071Z,61.02
2018-10-01T01:36:29.652Z,59.58
2018-10-01T01:38:59.363Z,59.87
2018-10-01T01:41:30.504Z,60.83
2018-10-01T01:44:00.223Z,60.56
2018-10-01T01:46:29.656Z,61.26
2018-10-01T01:48:58.376Z,59.54
2018-10-01T01:51:28.504Z,59.71
2018-10-01T01:53:59.526Z,60.14
2018-10-01T01:56:28.779Z,59.48
2018-10-01T01:58:58.971Z,58.68
2018-10-01T02:01:28.791Z,58.60
2018-10-01T02:03:57.512Z,57.84
2018-10-01T02:06:28.410Z,57.64
2018-10-01T02:09:01.984Z,58.24
2018-10-01T02:11:32.766Z,57.77
2018-10-01T02:14:04.403Z,57.46
2018-10-01T02:21:20.564Z,58.86
2018-10-01T02:23:49.755Z,57.33
2018-10-01T02:26:19.620Z,58.25
2018-10-01T02:28:49.053Z,58.07
2018-10-01T02:31:19.396Z,58.09
2018-10-01T02:33:49.475Z,59.15
2018-10-01T02:36:21.319Z,58.82
2018-10-01T02:38:51.930Z,58.42
2018-10-01T02:41:20.479Z,58.88
2018-10-01T02:43:52.042Z,58.69
2018-10-01T02:46:22.563Z,59.19
2018-10-01T02:48:53.799Z,58.58
2018-10-01T02:51:23.023Z,58.66
2018-10-01T02:53:57.800Z,59.74
2018-10-01T02:56:27.045Z,60.25
2018-10-01T02:58:56.424Z,60.38
2018-10-01T03:01:25.179Z,59.19
2018-10-01T03:03:54.972Z,58.05
2018-10-01T03:06:25.599Z,58.45
2018-10-01T03:08:54.617Z,59.25
2018-10-01T03:11:23.712Z,59.07
2018-10-01T03:13:52.208Z,58.07
2018-10-01T03:16:22.890Z,59.06
2018-10-01T03:18:51.582Z,58.69
2018-10-01T03:21:20.431Z,58.31
2018-10-01T03:23:50.476Z,57.32
2018-10-01T03:26:19.092Z,58.80
2018-10-01T03:28:49.177Z,57.07
2018-10-01T03:31:18.508Z,58.05
2018-10-01T03:33:48.771Z,58.41
2018-10-01T03:36:18.384Z,58.19
2018-10-01T03:38:47.438Z,58.47
2018-10-01T03:41:17.538Z,58.74
2018-10-01T03:43:46.614Z,58.27
2018-10-01T03:46:23.325Z,58.81
2018-10-01T03:48:52.576Z,58.81
2018-10-01T03:51:22.727Z,57.94
2018-10-01T03:53:51.860Z,57.83
2018-10-01T03:56:24.002Z,57.94
2018-10-01T03:58:53.123Z,58.52
2018-10-01T04:01:21.676Z,59.05
2018-10-01T04:03:51.756Z,59.44
2018-10-01T04:06:22.877Z,58.94
2018-10-01T04:08:52.792Z,58.31
2018-10-01T04:11:23.179Z,58.75
2018-10-01T04:13:52.259Z,58.54
2018-10-01T04:16:21.059Z,57.71
2018-10-01T04:18:50.550Z,58.00
2018-10-01T04:21:20.619Z,57.86
2018-10-01T04:23:49.504Z,56.99
2018-10-01T04:26:19.940Z,57.50
2018-10-01T04:28:49.201Z,57.11
2018-10-01T04:31:18.908Z,57.02
2018-10-01T04:33:49.345Z,56.65
2018-10-01T04:36:19.242Z,57.89
2018-10-01T04:38:50.334Z,57.48
2018-10-01T04:41:20.193Z,57.30
2018-10-01T04:43:50.607Z,58.08
2018-10-01T04:46:19.692Z,56.89
2018-10-01T04:48:50.150Z,58.96
2018-10-01T04:51:20.145Z,58.20
2018-10-01T04:53:50.685Z,57.87
2018-10-01T04:56:20.408Z,58.45
2018-10-01T04:58:49.788Z,59.48
2018-10-01T05:01:19.845Z,60.32
2018-10-01T05:03:50.386Z,59.44
2018-10-01T05:07:51.579Z,58.85
2018-10-01T05:10:21.064Z,60.52
2018-10-01T05:12:51.176Z,59.53
2018-10-01T05:15:23.246Z,59.92
2018-10-01T05:17:54.759Z,58.42
2018-10-01T05:20:26.717Z,58.68
2018-10-01T05:22:55.557Z,60.21
2018-10-01T05:25:26.226Z,60.60
2018-10-01T05:27:57.628Z,62.03
2018-10-01T05:30:30.449Z,62.29
2018-10-01T05:32:59.097Z,61.00
2018-10-01T05:35:28.810Z,60.58
2018-10-01T05:37:58.064Z,60.98
2018-10-01T05:40:27.363Z,61.08
2018-10-01T05:42:56.372Z,60.89
2018-10-01T05:45:26.499Z,60.33
2018-10-01T05:47:57.130Z,60.59
2018-10-01T05:50:26.541Z,61.48
2018-10-01T05:52:56.559Z,61.62
2018-10-01T05:55:25.968Z,61.84
2018-10-01T05:57:57.539Z,61.72
2018-10-01T06:00:26.517Z,61.37
2018-10-01T06:02:58.884Z,62.23
2018-10-01T06:05:30.941Z,60.73
2018-10-01T06:08:00.610Z,60.62
2018-10-01T06:10:29.166Z,61.06
2018-10-01T06:12:58.841Z,61.64
2018-10-01T06:15:27.937Z,61.37
2018-10-01T06:17:57.888Z,61.90
2018-10-01T06:20:28.011Z,61.72
2018-10-01T06:22:57.865Z,60.84
2018-10-01T06:25:27.567Z,60.95
2018-10-01T06:27:56.993Z,60.58
2018-10-01T06:30:25.772Z,62.35
2018-10-01T06:32:55.289Z,62.30
2018-10-01T06:35:30.896Z,62.35
2018-10-01T06:37:59.843Z,63.33
2018-10-01T06:40:29.354Z,63.08
2018-10-01T06:42:59.886Z,63.63
2018-10-01T06:45:29.960Z,65.22
2018-10-01T06:48:00.084Z,64.20
2018-10-01T06:50:29.928Z,65.50
2018-10-01T06:53:00.508Z,66.84
2018-10-01T06:55:29.685Z,65.40
2018-10-01T06:57:59.463Z,64.50
2018-10-01T07:00:28.371Z,64.59
2018-10-01T07:02:58.411Z,64.66
2018-10-01T07:05:27.817Z,63.87
2018-10-01T07:07:56.609Z,65.37
2018-10-01T07:10:31.290Z,65.67
2018-10-01T07:13:01.361Z,67.39
2018-10-01T07:15:30.429Z,66.87
2018-10-01T07:18:00.436Z,66.27
2018-10-01T07:20:29.711Z,64.43
2018-10-01T07:22:59.538Z,65.45
2018-10-01T07:25:28.928Z,63.54
2018-10-01T07:27:57.946Z,64.06
2018-10-01T07:30:26.993Z,61.86
2018-10-01T07:32:55.752Z,64.20
2018-10-01T07:35:25.815Z,64.18
2018-10-01T07:37:57.551Z,62.74
2018-10-01T07:40:42.611Z,63.63
2018-10-01T07:43:11.501Z,63.35
2018-10-01T07:45:41.164Z,63.76
2018-10-01T07:48:11.892Z,62.56
2018-10-01T07:50:40.559Z,60.73
2018-10-01T07:53:10.565Z,62.25
2018-10-01T07:55:39.094Z,63.48
2018-10-01T07:58:09.292Z,63.66
2018-10-01T08:00:39.457Z,65.77
2018-10-01T08:03:08.320Z,65.12
2018-10-01T08:05:37.666Z,65.98
2018-10-01T08:08:07.232Z,64.79
2018-10-01T08:10:37.044Z,65.08
2018-10-01T08:13:05.607Z,66.73
2018-10-01T08:15:35.514Z,63.96
2018-10-01T08:18:05.731Z,65.69
2018-10-01T08:20:34.912Z,65.12
2018-10-01T08:25:39.954Z,66.90
2018-10-01T08:28:09.904Z,67.71
2018-10-01T08:30:40.949Z,67.18
2018-10-01T08:33:11.620Z,67.23
2018-10-01T08:35:40.684Z,66.70
2018-10-01T08:38:10.450Z,68.43
2018-10-01T08:40:39.803Z,67.42
2018-10-01T08:43:08.883Z,66.46
2018-10-01T08:45:40.357Z,68.60
2018-10-01T08:54:39.140Z,67.35
2018-10-01T08:57:08.645Z,67.60
2018-10-01T08:59:38.502Z,67.86
2018-10-01T09:02:09.333Z,66.27
2018-10-01T09:04:38.809Z,66.09
2018-10-01T09:07:08.023Z,66.44
2018-10-01T09:09:37.470Z,64.23
2018-10-01T09:12:06.883Z,66.32
2018-10-01T09:14:38.220Z,65.25
2018-10-01T09:19:41.958Z,66.58
2018-10-01T09:22:11.730Z,67.74
2018-10-01T09:24:40.875Z,67.42
2018-10-01T09:27:09.463Z,65.41
2018-10-01T09:29:38.615Z,63.61
2018-10-01T09:32:08.237Z,64.12
2018-10-01T09:34:38.518Z,63.21
2018-10-01T09:37:07.374Z,63.99
2018-10-01T09:39:36.821Z,63.20
2018-10-01T09:42:05.523Z,64.09
2018-10-01T09:44:34.369Z,60.79
2018-10-01T09:47:03.615Z,63.51
2018-10-01T09:49:32.768Z,62.80
2018-10-01T09:52:02.250Z,63.44
2018-10-01T09:54:34.017Z,63.68
2018-10-01T09:57:04.639Z,64.77
2018-10-01T09:59:33.938Z,63.45
2018-10-01T10:02:03.793Z,62.26
2018-10-01T10:04:33.236Z,62.71
2018-10-01T10:07:03.171Z,63.25
2018-10-01T10:09:34.996Z,63.28
2018-10-01T10:12:03.616Z,62.15
2018-10-01T10:14:33.694Z,63.49
2018-10-01T10:17:02.180Z,64.13
2018-10-01T10:19:32.540Z,63.29
2018-10-01T10:22:01.974Z,62.65
2018-10-01T10:24:31.386Z,62.13
2018-10-01T10:27:01.396Z,61.56
2018-10-01T10:29:33.470Z,60.77
2018-10-01T10:32:02.408Z,59.24
2018-10-01T10:34:32.275Z,59.44
2018-10-01T10:37:05.998Z,58.81
2018-10-01T10:39:36.620Z,59.23
2018-10-01T10:42:06.700Z,59.93
2018-10-01T10:44:36.714Z,59.39
2018-10-01T10:47:05.521Z,60.25
2018-10-01T10:49:34.543Z,60.34
2018-10-01T10:52:05.384Z,60.41
2018-10-01T10:54:35.228Z,56.58
2018-10-01T10:57:04.732Z,58.62
2018-10-01T10:59:37.148Z,59.61
2018-10-01T11:02:06.497Z,59.02
2018-10-01T11:04:37.225Z,59.08
2018-10-01T11:07:06.328Z,59.65
2018-10-01T11:09:35.595Z,58.15
2018-10-01T11:12:05.428Z,57.57
2018-10-01T11:14:35.219Z,55.52
2018-10-01T11:17:05.961Z,55.07
2018-10-01T11:19:38.620Z,54.91
2018-10-01T11:22:08.936Z,56.89
2018-10-01T11:24:40.733Z,57.26
2018-10-01T11:27:09.488Z,58.04
2018-10-01T11:29:38.608Z,57.12
2018-10-01T11:32:08.439Z,56.67
2018-10-01T11:34:39.151Z,56.35
2018-10-01T11:37:08.257Z,55.72
2018-10-01T11:39:38.225Z,56.96
2018-10-01T11:42:07.762Z,57.34
2018-10-01T11:44:36.261Z,56.52
2018-10-01T11:47:06.357Z,58.61
2018-10-01T11:49:36.832Z,59.26
2018-10-01T11:52:06.523Z,57.50
2018-10-01T11:54:35.440Z,57.04
2018-10-01T11:57:04.531Z,56.79
2018-10-01T11:59:35.147Z,56.18
2018-10-01T12:02:05.152Z,57.00
2018-10-01T12:04:35.748Z,57.44
2018-10-01T12:07:05.791Z,58.59
2018-10-01T12:09:36.392Z,58.18
2018-10-01T12:12:05.343Z,58.60
2018-10-01T12:14:34.657Z,57.86
2018-10-01T12:17:03.451Z,56.55
2018-10-01T12:19:33.180Z,55.49
2018-10-01T12:22:04.327Z,54.27
2018-10-01T12:24:34.374Z,53.22
2018-10-01T12:27:07.024Z,52.84
2018-10-01T12:29:36.440Z,51.53
2018-10-01T12:32:08.073Z,49.73
2018-10-01T12:34:37.398Z,51.25
2018-10-01T12:37:06.196Z,51.18
2018-10-01T12:39:35.879Z,50.21
2018-10-01T12:42:04.358Z,51.41
2018-10-01T12:44:33.399Z,50.96
2018-10-01T12:47:02.487Z,51.77
2018-10-01T12:49:31.930Z,50.78
2018-10-01T12:52:01.504Z,52.04
2018-10-01T12:54:32.371Z,52.26
2018-10-01T12:57:03.508Z,51.53
2018-10-01T12:59:33.140Z,52.24
2018-10-01T13:04:40.415Z,48.55
2018-10-01T13:07:12.216Z,49.72
2018-10-01T13:09:40.983Z,51.07
2018-10-01T13:12:11.098Z,51.09
2018-10-01T13:14:42.055Z,52.17
2018-10-01T13:17:12.223Z,51.95
2018-10-01T13:19:41.626Z,52.66
2018-10-01T13:22:10.664Z,52.48
2018-10-01T13:24:40.205Z,52.93
2018-10-01T13:27:09.889Z,52.75
2018-10-01T13:29:39.500Z,50.81
2018-10-01T13:32:08.977Z,50.00
2018-10-01T13:34:39.039Z,52.09
2018-10-01T13:37:09.995Z,55.04
2018-10-01T13:39:39.723Z,55.45
2018-10-01T13:42:11.625Z,57.39
2018-10-01T13:44:42.447Z,56.90
2018-10-01T13:47:11.607Z,57.53
2018-10-01T13:49:40.997Z,57.53
2018-10-01T13:52:10.957Z,56.16
2018-10-01T13:54:41.044Z,56.80
2018-10-01T13:57:10.599Z,55.92
2018-10-01T13:59:39.695Z,55.50
2018-10-01T14:02:09.958Z,53.69
2018-10-01T14:04:40.313Z,52.97
2018-10-01T14:07:10.814Z,51.75
2018-10-01T14:09:39.753Z,51.58
2018-10-01T14:12:09.133Z,51.42
2018-10-01T14:14:38.342Z,51.16
2018-10-01T14:17:08.692Z,49.04
2018-10-01T14:19:38.788Z,49.21
2018-10-01T14:22:07.815Z,48.14
2018-10-01T14:24:37.361Z,48.71
2018-10-01T14:27:07.688Z,46.90
2018-10-01T14:29:46.583Z,48.21
2018-10-01T14:32:19.987Z,48.45
2018-10-01T14:34:50.086Z,48.30
2018-10-01T14:37:20.545Z,47.14
2018-10-01T14:39:49.574Z,47.68
2018-10-01T14:42:18.759Z,47.22
2018-10-01T14:44:49.727Z,46.50
2018-10-01T14:47:18.986Z,47.08
2018-10-01T14:49:47.495Z,47.23
2018-10-01T14:52:16.917Z,46.59
2018-10-01T14:54:47.336Z,45.14
2018-10-01T14:57:16.723Z,47.40
2018-10-01T14:59:46.592Z,47.85
2018-10-01T15:02:15.202Z,46.41
2018-10-01T15:04:46.128Z,46.56
2018-10-01T15:07:15.277Z,45.09
2018-10-01T15:09:44.246Z,43.61
2018-10-01T15:12:14.131Z,43.53
2018-10-01T15:14:43.340Z,44.61
2018-10-01T15:17:13.569Z,43.86
2018-10-01T15:19:43.185Z,44.75
2018-10-01T15:22:13.604Z,43.61
2018-10-01T15:24:45.470Z,44.78
2018-10-01T15:27:14.775Z,44.20
2018-10-01T15:29:43.743Z,46.00
2018-10-01T15:32:12.548Z,46.56
2018-10-01T15:34:42.600Z,47.28
2018-10-01T15:37:12.252Z,47.20
2018-10-01T15:39:42.184Z,46.81
2018-10-01T15:42:13.210Z,47.35
2018-10-01T15:44:42.059Z,48.96
2018-10-01T15:47:11.922Z,47.50
2018-10-01T15:49:42.034Z,47.57
2018-10-01T15:52:11.548Z,47.38
2018-10-01T15:54:40.355Z,48.57
2018-10-01T15:57:08.874Z,46.88
2018-10-01T15:59:39.067Z,48.35
2018-10-01T16:02:08.553Z,48.45
2018-10-01T16:04:38.691Z,46.83
2018-10-01T16:07:08.672Z,48.18
2018-10-01T16:09:37.736Z,47.22
2018-10-01T16:12:06.532Z,50.67
2018-10-01T16:14:35.312Z,53.17
2018-10-01T16:17:06.879Z,56.86
2018-10-01T16:19:35.743Z,52.89
2018-10-01T16:22:06.648Z,52.24
2018-10-01T16:24:36.325Z,51.33
2018-10-01T16:27:04.827Z,53.33
2018-10-01T16:29:34.935Z,52.76
2018-10-01T16:32:04.344Z,52.78
2018-10-01T16:34:34.883Z,51.47
2018-10-01T16:37:03.399Z,51.62
2018-10-01T16:39:32.726Z,51.48
2018-10-01T16:42:06.892Z,53.16
2018-10-01T16:44:35.787Z,51.98
2018-10-01T16:47:05.267Z,53.22
2018-10-01T16:49:35.166Z,53.40
2018-10-01T16:52:07.271Z,54.37
2018-10-01T16:54:35.841Z,54.21
2018-10-01T16:57:04.657Z,53.63
2018-10-01T16:59:33.791Z,53.68
2018-10-01T17:02:03.911Z,54.44
2018-10-01T17:04:33.560Z,54.23
2018-10-01T17:07:03.787Z,55.09
2018-10-01T17:09:32.636Z,55.48
2018-10-01T17:12:02.687Z,55.56
2018-10-01T17:14:33.040Z,58.12
2018-10-01T17:17:02.736Z,60.72
2018-10-01T17:19:31.376Z,62.46
2018-10-01T17:21:59.979Z,62.24
2018-10-01T17:24:30.595Z,62.97
2018-10-01T17:27:00.190Z,62.17
2018-10-01T17:29:29.486Z,61.32
2018-10-01T17:31:59.433Z,61.13
2018-10-01T17:34:29.852Z,61.41
2018-10-01T17:36:59.288Z,60.99
2018-10-01T17:39:28.847Z,61.60
2018-10-01T17:42:00.018Z,62.01
2018-10-01T17:44:29.060Z,61.96
2018-10-01T17:46:59.805Z,64.95
2018-10-01T17:49:29.719Z,65.25
2018-10-01T17:51:58.765Z,67.94
2018-10-01T17:54:29.707Z,70.76
2018-10-01T17:57:00.305Z,71.12
2018-10-01T17:59:30.756Z,68.63
2018-10-01T18:01:59.969Z,69.54
2018-10-01T18:04:29.100Z,70.64
2018-10-01T18:06:58.142Z,67.69
2018-10-01T18:09:28.548Z,68.68
2018-10-01T18:11:58.979Z,68.96
2018-10-01T18:14:27.916Z,70.24
2018-10-01T18:16:58.245Z,70.59
2018-10-01T18:19:27.552Z,69.54
2018-10-01T18:21:58.504Z,69.32
2018-10-01T18:24:30.502Z,67.14
2018-10-01T18:27:00.228Z,67.37
2018-10-01T18:29:29.188Z,66.99
2018-10-01T18:31:58.862Z,67.99
2018-10-01T18:34:29.324Z,68.33
2018-10-01T18:36:58.689Z,68.97
2018-10-01T18:39:30.360Z,68.08
2018-10-01T18:44:06.045Z,67.18
2018-10-01T18:46:36.169Z,68.37
2018-10-01T18:49:08.000Z,67.72
2018-10-01T18:51:37.047Z,68.00
2018-10-01T18:54:08.284Z,67.46
2018-10-01T18:56:38.363Z,66.72
2018-10-01T18:59:08.125Z,67.27
2018-10-01T19:01:38.523Z,65.99
2018-10-01T19:04:10.924Z,66.93
2018-10-01T19:06:39.476Z,66.94
2018-10-01T19:09:10.530Z,67.30
2018-10-01T19:11:40.704Z,66.04
2018-10-01T19:14:11.671Z,65.74
2018-10-01T19:16:41.168Z,67.61
2018-10-01T19:19:10.218Z,67.47
2018-10-01T19:21:39.810Z,69.53
2018-10-01T19:24:09.029Z,67.99
2018-10-01T19:26:38.817Z,68.17
2018-10-01T19:29:07.564Z,67.59
2018-10-01T19:31:36.727Z,67.24
2018-10-01T19:34:06.189Z,67.17
2018-10-01T19:36:35.730Z,67.33
2018-10-01T19:39:06.441Z,66.49
2018-10-01T19:41:35.348Z,67.02
2018-10-01T19:44:04.455Z,68.59
2018-10-01T19:46:34.436Z,69.11
2018-10-01T19:49:05.089Z,67.83
2018-10-01T19:51:34.259Z,69.04
2018-10-01T19:54:03.626Z,67.26
2018-10-01T19:56:33.816Z,66.83
2018-10-01T19:59:04.375Z,68.32
2018-10-01T20:01:34.388Z,67.84
2018-10-01T20:04:05.402Z,68.50
2018-10-01T20:06:34.653Z,70.89
2018-10-01T20:09:04.234Z,71.45
2018-10-01T20:11:33.560Z,70.60
2018-10-01T20:14:03.208Z,69.51
2018-10-01T20:16:31.791Z,70.81
2018-10-01T20:19:00.777Z,69.65
2018-10-01T20:21:29.569Z,71.53
2018-10-01T20:23:59.630Z,70.34
2018-10-01T20:26:29.167Z,69.62
2018-10-01T20:28:58.377Z,69.66
2018-10-01T20:31:26.708Z,70.34
2018-10-01T20:33:56.256Z,68.87
2018-10-01T20:36:25.226Z,70.22
2018-10-01T20:38:54.791Z,70.46
2018-10-01T20:41:26.809Z,68.94
2018-10-01T20:43:57.050Z,68.35
2018-10-01T20:46:27.619Z,68.38
2018-10-01T20:48:56.868Z,68.08
2018-10-01T20:51:27.035Z,68.36
2018-10-01T20:53:56.321Z,68.80
2018-10-01T20:56:26.597Z,67.40
2018-10-01T20:58:58.733Z,66.38
2018-10-01T21:01:27.438Z,65.00
2018-10-01T21:03:57.004Z,64.52
2018-10-01T21:06:28.284Z,66.62
2018-10-01T21:08:57.989Z,65.93
2018-10-01T21:11:26.469Z,65.99
2018-10-01T21:13:57.277Z,66.59
2018-10-01T21:16:30.179Z,64.87
2018-10-01T21:18:59.010Z,64.11
2018-10-01T21:21:28.152Z,64.67
2018-10-01T21:24:01.831Z,67.50
2018-10-01T21:26:31.039Z,66.09
2018-10-01T21:29:00.238Z,63.97
2018-10-01T21:31:31.075Z,63.68
2018-10-01T21:34:00.896Z,62.09
2018-10-01T21:36:29.324Z,62.52
2018-10-01T21:38:59.133Z,62.89
2018-10-01T21:41:29.755Z,63.88
2018-10-01T21:43:59.494Z,62.77
2018-10-01T21:46:31.267Z,64.00
2018-10-01T21:49:00.904Z,63.37
2018-10-01T21:51:29.511Z,64.09
2018-10-01T21:53:58.149Z,64.61
2018-10-01T21:56:27.218Z,64.72
2018-10-01T21:58:58.721Z,65.61
2018-10-01T22:01:44.164Z,65.08
2018-10-01T22:04:13.825Z,65.97
2018-10-01T22:06:43.852Z,66.25
2018-10-01T22:09:13.128Z,65.31
2018-10-01T22:11:42.477Z,65.34
2018-10-01T22:14:11.195Z,66.42
2018-10-01T22:16:41.170Z,65.12
2018-10-01T22:19:11.674Z,64.34
2018-10-01T22:21:40.154Z,64.72
2018-10-01T22:24:12.261Z,62.87
2018-10-01T22:26:43.971Z,63.61
2018-10-01T22:29:13.332Z,63.29
2018-10-01T22:31:43.195Z,63.67
2018-10-01T22:34:11.731Z,65.05
2018-10-01T22:36:40.778Z,64.19
2018-10-01T22:39:11.846Z,64.06
2018-10-01T22:41:41.273Z,62.92
2018-10-01T22:44:10.280Z,64.41
2018-10-01T22:46:39.132Z,66.42
2018-10-01T22:49:08.130Z,65.65
2018-10-01T22:51:39.068Z,66.29
2018-10-01T22:54:08.025Z,67.50
2018-10-01T22:56:36.911Z,68.24
2018-10-01T22:59:06.280Z,67.73
2018-10-01T23:01:35.172Z,68.15
2018-10-01T23:04:04.489Z,68.23
2018-10-01T23:06:33.856Z,68.64
2018-10-01T23:09:02.383Z,65.87
2018-10-01T23:11:31.692Z,67.15
2018-10-01T23:14:01.395Z,68.43
2018-10-01T23:16:31.598Z,68.68
2018-10-01T23:19:00.794Z,68.43
2018-10-01T23:21:30.943Z,68.47
2018-10-01T23:24:00.958Z,69.82
2018-10-01T23:26:29.979Z,70.88
2018-10-01T23:29:00.788Z,70.38
2018-10-01T23:31:30.399Z,70.34
2018-10-01T23:33:58.963Z,71.07
2018-10-01T23:36:29.998Z,71.36
2018-10-01T23:39:13.156Z,70.61
2018-10-01T23:41:43.106Z,68.75
2018-10-01T23:44:14.169Z,70.07
2018-10-01T23:46:45.238Z,69.83
2018-10-01T23:49:14.449Z,71.26
2018-10-01T23:51:46.604Z,69.89
2018-10-01T23:54:16.433Z,68.18
2018-10-01T23:56:45.813Z,67.42
2018-10-01T23:59:15.948Z,68.45
